createdAt,value
2022-09-10T00:01:31.482Z,11.63
2022-09-10T00:03:59.957Z,16.05
2022-09-10T00:06:28.657Z,14.95
2022-09-10T00:08:59.776Z,12.30
2022-09-10T00:11:31.158Z,16.63
2022-09-10T00:13:59.472Z,18.35
2022-09-10T00:16:28.465Z,14.73
2022-09-10T00:18:57.290Z,16.33
2022-09-10T00:21:25.607Z,22.83
2022-09-10T00:23:54.365Z,21.48
2022-09-10T00:26:28.595Z,19.80
2022-09-10T00:28:59.821Z,14.85
2022-09-10T00:31:29.988Z,15.50
2022-09-10T00:34:00.107Z,15.70
2022-09-10T00:36:30.972Z,16.33
2022-09-10T00:39:02.368Z,17.63
2022-09-10T00:41:33.801Z,16.23
2022-09-10T00:44:03.477Z,17.77
2022-09-10T00:46:42.902Z,19.02
2022-09-10T00:49:17.830Z,20.83
2022-09-10T00:51:48.482Z,16.15
2022-09-10T00:54:20.244Z,25.40
2022-09-10T00:56:50.750Z,13.15
2022-09-10T00:59:21.227Z,21.65
2022-09-10T01:01:50.537Z,15.77
2022-09-10T01:04:19.177Z,18.42
2022-09-10T01:06:48.402Z,20.23
2022-09-10T01:09:17.616Z,17.90
2022-09-10T01:12:04.400Z,15.15
2022-09-10T01:14:56.926Z,23.27
2022-09-10T01:17:31.680Z,18.85
2022-09-10T01:20:29.617Z,19.98
2022-09-10T01:23:18.059Z,22.48
2022-09-10T01:25:55.528Z,21.73
2022-09-10T01:28:33.432Z,21.27
2022-09-10T01:31:11.468Z,24.73
2022-09-10T01:33:48.204Z,18.23
2022-09-10T01:36:20.834Z,26.80
2022-09-10T01:38:51.692Z,20.45
2022-09-10T01:41:24.095Z,28.02
2022-09-10T01:43:53.731Z,19.90
2022-09-10T01:46:41.680Z,28.50
2022-09-10T01:49:27.018Z,22.63
2022-09-10T01:52:13.251Z,26.88
2022-09-10T01:54:53.395Z,25.35
2022-09-10T01:57:33.438Z,25.83
2022-09-10T02:00:07.261Z,28.48
2022-09-10T02:02:41.818Z,27.88
2022-09-10T02:05:12.365Z,32.28
2022-09-10T02:07:40.769Z,27.35
2022-09-10T02:10:11.515Z,26.15
2022-09-10T02:12:40.120Z,35.80
2022-09-10T02:15:12.872Z,23.27
2022-09-10T02:17:42.248Z,33.30
2022-09-10T02:20:14.727Z,24.60
2022-09-10T02:22:49.783Z,27.80
2022-09-10T02:25:18.098Z,28.50
2022-09-10T02:27:46.324Z,25.90
2022-09-10T02:30:16.135Z,26.75
2022-09-10T02:32:44.338Z,25.73
2022-09-10T02:35:12.766Z,27.73
2022-09-10T02:37:41.250Z,33.45
2022-09-10T02:40:11.496Z,29.67
2022-09-10T02:42:39.791Z,28.92
2022-09-10T02:45:09.032Z,34.42
2022-09-10T02:47:38.595Z,30.88
2022-09-10T02:50:08.209Z,35.10
2022-09-10T02:52:37.095Z,40.50
2022-09-10T02:55:05.762Z,33.00
2022-09-10T02:57:34.000Z,30.67
2022-09-10T03:00:02.943Z,29.88
2022-09-10T03:02:31.044Z,34.75
2022-09-10T03:05:00.563Z,38.55
2022-09-10T03:07:28.739Z,38.45
2022-09-10T03:09:57.023Z,31.30
2022-09-10T03:12:25.273Z,32.47
2022-09-10T03:14:53.460Z,37.45
2022-09-10T03:17:21.616Z,35.75
2022-09-10T03:19:49.806Z,38.03
2022-09-10T03:22:19.589Z,34.67
2022-09-10T03:24:48.215Z,37.53
2022-09-10T03:27:18.092Z,39.88
2022-09-10T03:29:46.246Z,35.13
2022-09-10T03:32:14.418Z,36.10
2022-09-10T03:34:42.978Z,38.45
2022-09-10T03:37:11.524Z,35.10
2022-09-10T03:39:41.051Z,38.70
2022-09-10T03:42:09.316Z,29.77
2022-09-10T03:44:37.725Z,34.10
2022-09-10T03:47:06.254Z,39.22
2022-09-10T03:49:34.518Z,35.58
2022-09-10T03:52:03.140Z,41.15
2022-09-10T03:54:31.278Z,39.28
2022-09-10T03:57:03.142Z,48.28
2022-09-10T03:59:31.395Z,40.97
2022-09-10T04:01:59.647Z,40.35
2022-09-10T04:04:27.995Z,46.70
2022-09-10T04:06:56.403Z,38.38
2022-09-10T04:09:24.652Z,39.92
2022-09-10T04:11:52.861Z,40.10
2022-09-10T04:14:24.617Z,46.83
2022-09-10T04:16:52.774Z,39.75
2022-09-10T04:19:20.947Z,47.17
2022-09-10T04:21:51.135Z,41.58
2022-09-10T04:24:19.646Z,47.67
2022-09-10T04:26:47.940Z,47.08
2022-09-10T04:29:16.222Z,45.38
2022-09-10T04:31:46.776Z,41.50
2022-09-10T04:34:15.906Z,44.42
2022-09-10T04:36:44.227Z,41.95
2022-09-10T04:39:14.474Z,51.55
2022-09-10T04:41:42.764Z,42.53
2022-09-10T04:44:11.080Z,45.63
2022-09-10T04:46:39.220Z,48.10
2022-09-10T04:49:09.854Z,48.05
2022-09-10T04:51:38.196Z,47.42
2022-09-10T04:54:06.357Z,41.78
2022-09-10T04:56:34.969Z,50.63
2022-09-10T04:59:03.203Z,42.97
2022-09-10T05:01:31.308Z,49.60
2022-09-10T05:03:59.529Z,44.83
2022-09-10T05:06:29.159Z,45.30
2022-09-10T05:08:57.481Z,44.08
2022-09-10T05:11:25.720Z,42.88
2022-09-10T05:13:53.989Z,45.92
2022-09-10T05:16:22.342Z,45.78
2022-09-10T05:18:50.551Z,49.25
2022-09-10T05:21:19.541Z,48.63
2022-09-10T05:23:49.112Z,51.58
2022-09-10T05:26:17.376Z,47.10
2022-09-10T05:28:45.646Z,47.85
2022-09-10T05:31:13.993Z,48.15
2022-09-10T05:33:42.278Z,42.10
2022-09-10T05:36:10.916Z,47.60
2022-09-10T05:38:40.157Z,48.83
2022-09-10T05:41:11.962Z,43.00
2022-09-10T05:43:40.350Z,50.45
2022-09-10T05:46:08.599Z,45.22
2022-09-10T05:48:41.384Z,42.67
2022-09-10T05:51:10.019Z,50.80
2022-09-10T05:53:40.033Z,51.67
2022-09-10T05:56:08.657Z,50.78
2022-09-10T05:58:38.400Z,45.38
2022-09-10T06:01:06.885Z,41.63
2022-09-10T06:03:36.292Z,44.47
2022-09-10T06:06:04.480Z,44.88
2022-09-10T06:08:33.030Z,46.78
2022-09-10T06:11:05.236Z,39.15
2022-09-10T06:13:33.948Z,44.25
2022-09-10T06:16:05.170Z,39.72
2022-09-10T06:18:33.522Z,40.88
2022-09-10T06:21:07.030Z,38.47
2022-09-10T06:23:36.302Z,31.45
2022-09-10T06:26:06.763Z,34.08
2022-09-10T06:28:35.360Z,26.77
2022-09-10T06:31:05.692Z,35.03
2022-09-10T06:33:34.984Z,37.00
2022-09-10T06:36:03.973Z,32.10
2022-09-10T06:38:34.042Z,30.83
2022-09-10T06:41:04.919Z,28.75
2022-09-10T06:43:36.304Z,26.83
2022-09-10T06:46:31.988Z,34.35
2022-09-10T06:49:00.928Z,39.30
2022-09-10T06:51:29.858Z,30.38
2022-09-10T06:53:58.748Z,28.63
2022-09-10T06:56:27.256Z,36.72
2022-09-10T06:59:00.360Z,33.65
2022-09-10T07:01:32.004Z,37.72
2022-09-10T07:04:01.531Z,40.65
2022-09-10T07:06:34.828Z,46.17
2022-09-10T07:09:04.474Z,39.53
2022-09-10T07:11:32.893Z,34.63
2022-09-10T07:14:02.172Z,30.27
2022-09-10T07:16:31.821Z,36.90
2022-09-10T07:19:01.611Z,36.58
2022-09-10T07:21:30.314Z,33.97
2022-09-10T07:24:01.159Z,29.52
2022-09-10T07:26:30.151Z,40.05
2022-09-10T07:28:59.439Z,33.50
2022-09-10T07:31:29.918Z,37.20
2022-09-10T07:33:59.626Z,28.60
2022-09-10T07:36:28.881Z,40.40
2022-09-10T07:39:01.441Z,37.42
2022-09-10T07:41:32.036Z,31.88
2022-09-10T07:44:00.319Z,30.58
2022-09-10T07:46:28.530Z,34.05
2022-09-10T07:48:59.766Z,37.83
2022-09-10T07:51:30.357Z,31.35
2022-09-10T07:54:00.362Z,36.58
2022-09-10T07:56:32.453Z,27.83
2022-09-10T07:59:02.763Z,26.63
2022-09-10T08:01:31.819Z,26.02
2022-09-10T08:04:01.457Z,26.63
2022-09-10T08:06:30.182Z,25.15
2022-09-10T08:09:00.053Z,23.85
2022-09-10T08:11:29.337Z,21.98
2022-09-10T08:13:57.512Z,16.77
2022-09-10T08:16:26.886Z,17.88
2022-09-10T08:18:57.807Z,16.17
2022-09-10T08:21:30.074Z,19.35
2022-09-10T08:23:58.463Z,21.05
2022-09-10T08:26:27.739Z,16.30
2022-09-10T08:28:58.210Z,19.73
2022-09-10T08:31:27.367Z,21.00
2022-09-10T08:33:57.429Z,24.55
2022-09-10T08:36:27.461Z,19.08
2022-09-10T08:39:00.292Z,17.90
2022-09-10T08:41:40.306Z,15.15
2022-09-10T08:44:16.283Z,17.23
2022-09-10T08:46:49.093Z,21.90
2022-09-10T08:49:21.978Z,15.65
2022-09-10T08:51:57.813Z,17.83
2022-09-10T08:54:29.314Z,22.27
2022-09-10T08:57:00.717Z,16.35
2022-09-10T08:59:34.528Z,19.83
2022-09-10T09:02:26.215Z,21.52
2022-09-10T09:05:06.208Z,19.05
2022-09-10T09:07:39.555Z,21.00
2022-09-10T09:10:19.931Z,20.52
2022-09-10T09:13:00.453Z,21.88
2022-09-10T09:15:37.805Z,14.15
2022-09-10T09:18:21.424Z,23.88
2022-09-10T09:20:55.838Z,19.33
2022-09-10T09:23:33.004Z,22.02
2022-09-10T09:26:05.541Z,18.45
2022-09-10T09:28:41.012Z,23.73
2022-09-10T09:31:17.833Z,23.23
2022-09-10T09:33:48.065Z,21.08
2022-09-10T09:36:20.377Z,25.55
2022-09-10T09:38:51.494Z,14.82
2022-09-10T09:41:26.082Z,15.40
2022-09-10T09:43:58.809Z,17.73
2022-09-10T09:46:27.102Z,14.35
2022-09-10T09:48:58.682Z,12.48
2022-09-10T09:51:30.715Z,12.07
2022-09-10T09:54:42.485Z,14.50
2022-09-10T09:56:59.298Z,11.07
2022-09-10T09:59:29.884Z,9.00
2022-09-10T10:02:05.631Z,7.70
2022-09-10T10:04:36.224Z,8.00
2022-09-10T10:07:07.779Z,7.30
2022-09-10T10:09:43.837Z,4.63
2022-09-10T10:12:21.222Z,8.00
2022-09-10T10:14:49.911Z,4.65
2022-09-10T10:17:37.643Z,3.22
2022-09-10T10:20:09.101Z,4.95
2022-09-10T10:22:38.416Z,11.85
2022-09-10T10:25:36.551Z,8.48
2022-09-10T10:28:06.098Z,7.25
2022-09-10T10:30:34.330Z,7.60
2022-09-10T10:33:04.718Z,5.78
2022-09-10T10:35:37.457Z,6.95
2022-09-10T10:38:30.941Z,6.65
2022-09-10T10:41:29.679Z,5.57
2022-09-10T10:44:09.617Z,7.50
2022-09-10T10:46:48.790Z,10.38
2022-09-10T10:49:31.876Z,9.13
2022-09-10T10:52:07.812Z,9.90
2022-09-10T10:54:54.818Z,9.52
2022-09-10T10:57:32.234Z,11.50
2022-09-10T11:00:10.666Z,9.38
2022-09-10T11:02:49.717Z,4.82
2022-09-10T11:05:23.120Z,6.45
2022-09-10T11:07:52.758Z,7.03
2022-09-10T11:10:27.189Z,6.47
2022-09-10T11:13:00.921Z,8.15
2022-09-10T11:15:38.544Z,6.32
2022-09-10T11:18:15.465Z,6.03
2022-09-10T11:20:47.026Z,3.28
2022-09-10T11:23:25.486Z,2.78
2022-09-10T11:26:00.958Z,4.07
2022-09-10T11:28:33.542Z,3.42
2022-09-10T11:31:12.059Z,3.13
2022-09-10T11:33:47.954Z,3.15
2022-09-10T11:36:25.348Z,4.03
2022-09-10T11:39:09.292Z,3.95
2022-09-10T11:41:42.313Z,5.60
2022-09-10T11:44:24.840Z,4.97
2022-09-10T11:47:02.938Z,3.53
2022-09-10T11:53:14.945Z,3.70
2022-09-10T11:55:58.719Z,4.05
2022-09-10T11:58:38.911Z,2.80
2022-09-10T12:01:14.698Z,7.13
2022-09-10T12:04:17.387Z,7.13
2022-09-10T12:06:53.741Z,6.30
2022-09-10T12:09:30.573Z,9.43
2022-09-10T12:12:07.255Z,7.72
2022-09-10T12:14:39.449Z,11.00
2022-09-10T12:17:15.173Z,12.10
2022-09-10T12:19:49.300Z,9.85
2022-09-10T12:22:21.761Z,9.27
2022-09-10T12:24:56.405Z,14.38
2022-09-10T12:27:45.420Z,9.82
2022-09-10T12:30:59.889Z,11.48
2022-09-10T12:33:57.737Z,16.10
2022-09-10T12:37:15.721Z,9.60
2022-09-10T12:39:46.004Z,11.30
2022-09-10T12:42:32.535Z,10.95
2022-09-10T12:45:01.509Z,13.93
2022-09-10T12:47:40.000Z,14.32
2022-09-10T12:50:28.939Z,14.15
2022-09-10T12:53:25.105Z,16.90
2022-09-10T12:56:03.439Z,15.43
2022-09-10T12:58:48.656Z,13.43
2022-09-10T13:01:31.636Z,7.45
2022-09-10T13:04:02.489Z,6.28
2022-09-10T13:06:40.372Z,6.38
2022-09-10T13:09:19.874Z,4.15
2022-09-10T13:11:52.484Z,5.18
2022-09-10T13:14:24.717Z,5.10
2022-09-10T13:16:56.125Z,5.78
2022-09-10T13:19:50.173Z,8.55
2022-09-10T13:22:56.049Z,13.23
2022-09-10T13:25:40.253Z,7.43
2022-09-10T13:29:01.334Z,7.32
2022-09-10T13:31:33.521Z,14.32
2022-09-10T13:34:33.116Z,9.70
2022-09-10T13:37:20.027Z,11.15
2022-09-10T13:40:10.460Z,15.75
2022-09-10T13:42:59.471Z,11.05
2022-09-10T13:45:30.175Z,12.35
2022-09-10T13:48:08.349Z,15.68
2022-09-10T13:50:40.805Z,14.70
2022-09-10T13:53:12.647Z,12.82
2022-09-10T13:55:51.697Z,13.07
2022-09-10T13:58:28.324Z,10.80
2022-09-10T14:00:58.181Z,10.73
2022-09-10T14:03:32.603Z,12.40
2022-09-10T14:06:05.135Z,12.80
2022-09-10T14:08:38.583Z,15.52
2022-09-10T14:11:15.298Z,12.10
2022-09-10T14:13:48.602Z,11.48
2022-09-10T14:16:28.323Z,14.02
2022-09-10T14:19:02.042Z,13.00
2022-09-10T14:21:30.627Z,9.32
2022-09-10T14:24:00.820Z,6.35
2022-09-10T14:26:30.971Z,11.70
2022-09-10T14:29:01.131Z,9.13
2022-09-10T14:31:33.796Z,4.88
2022-09-10T14:34:32.160Z,6.07
2022-09-10T14:37:01.644Z,8.75
2022-09-10T14:39:30.183Z,7.80
2022-09-10T14:42:23.380Z,10.50
2022-09-10T14:44:51.640Z,6.80
2022-09-10T14:47:30.330Z,6.00
2022-09-10T14:50:28.794Z,4.53
2022-09-10T14:52:57.136Z,2.40
2022-09-10T14:55:27.149Z,6.22
2022-09-10T14:57:56.193Z,7.22
2022-09-10T15:00:26.003Z,9.02
2022-09-10T15:02:57.382Z,10.02
2022-09-10T15:05:27.135Z,9.75
2022-09-10T15:07:55.416Z,8.93
2022-09-10T15:10:23.767Z,7.70
2022-09-10T15:12:53.245Z,8.25
2022-09-10T15:15:21.674Z,4.47
2022-09-10T15:17:49.859Z,8.68
2022-09-10T15:20:18.424Z,10.52
2022-09-10T15:22:48.492Z,11.27
2022-09-10T15:25:33.850Z,11.73
2022-09-10T15:28:04.047Z,12.82
2022-09-10T15:30:32.300Z,14.60
2022-09-10T15:33:00.579Z,9.45
2022-09-10T15:35:28.911Z,9.40
2022-09-10T15:38:01.442Z,14.95
2022-09-10T15:40:29.840Z,10.88
2022-09-10T15:42:58.049Z,16.23
2022-09-10T15:45:27.086Z,15.70
2022-09-10T15:47:55.409Z,6.57
2022-09-10T15:50:23.572Z,6.45
2022-09-10T15:52:51.755Z,5.85
2022-09-10T15:55:21.764Z,3.03
2022-09-10T15:57:50.948Z,4.65
2022-09-10T16:00:20.242Z,5.68
2022-09-10T16:02:52.070Z,1.67
2022-09-10T16:05:21.202Z,5.38
2022-09-10T16:07:49.638Z,5.03
2022-09-10T16:10:18.038Z,5.03
2022-09-10T16:12:47.653Z,5.88
2022-09-10T16:15:16.033Z,6.03
2022-09-10T16:17:44.195Z,4.32
2022-09-10T16:20:12.621Z,3.15
2022-09-10T16:22:40.858Z,5.53
2022-09-10T16:25:12.160Z,7.88
2022-09-10T16:27:43.151Z,3.15
2022-09-10T16:30:14.342Z,4.15
2022-09-10T16:32:42.503Z,6.43
2022-09-10T16:35:10.870Z,4.43
2022-09-10T16:37:39.267Z,8.30
2022-09-10T16:40:09.343Z,4.70
2022-09-10T16:42:37.621Z,5.90
2022-09-10T16:45:06.472Z,5.32
2022-09-10T16:47:37.925Z,3.67
2022-09-10T16:50:06.859Z,6.60
2022-09-10T16:52:35.919Z,7.50
2022-09-10T16:55:04.689Z,7.78
2022-09-10T16:57:32.935Z,11.05
2022-09-10T17:00:01.129Z,9.00
2022-09-10T17:02:30.779Z,8.20
2022-09-10T17:05:00.428Z,10.35
2022-09-10T17:07:29.224Z,12.68
2022-09-10T17:10:00.749Z,7.50
2022-09-10T17:12:29.540Z,9.15
2022-09-10T17:14:57.987Z,13.20
2022-09-10T17:17:26.159Z,16.20
2022-09-10T17:19:54.363Z,12.00
2022-09-10T17:22:24.022Z,8.35
2022-09-10T17:24:53.895Z,15.75
2022-09-10T17:27:25.404Z,10.98
2022-09-10T17:29:53.922Z,14.02
2022-09-10T17:32:22.115Z,12.77
2022-09-10T17:34:51.536Z,14.10
2022-09-10T17:37:20.035Z,12.30
2022-09-10T17:39:51.552Z,13.88
2022-09-10T17:42:20.130Z,13.52
2022-09-10T17:44:49.370Z,17.45
2022-09-10T17:47:17.834Z,13.82
2022-09-10T17:49:46.058Z,14.68
2022-09-10T17:52:14.922Z,13.77
2022-09-10T17:54:43.894Z,19.77
2022-09-10T17:57:14.780Z,14.43
2022-09-10T17:59:42.906Z,14.48
2022-09-10T18:02:14.160Z,17.13
2022-09-10T18:04:42.818Z,15.82
2022-09-10T18:07:11.918Z,16.40
2022-09-10T18:09:40.197Z,14.45
2022-09-10T18:12:08.934Z,15.60
2022-09-10T18:14:39.591Z,13.85
2022-09-10T18:17:07.762Z,14.63
2022-09-10T18:19:36.426Z,16.92
2022-09-10T18:22:05.272Z,15.35
2022-09-10T18:24:33.598Z,20.70
2022-09-10T18:27:04.618Z,16.90
2022-09-10T18:29:32.995Z,17.67
2022-09-10T18:32:02.751Z,19.40
2022-09-10T18:34:32.417Z,19.20
2022-09-10T18:37:02.856Z,25.55
2022-09-10T18:39:33.553Z,20.13
2022-09-10T18:42:02.759Z,15.75
2022-09-10T18:44:34.192Z,22.35
2022-09-10T18:47:11.150Z,28.15
2022-09-10T18:49:47.248Z,28.35
2022-09-10T18:52:16.784Z,27.63
2022-09-10T18:54:46.681Z,30.90
2022-09-10T18:57:15.243Z,28.13
2022-09-10T18:59:44.064Z,25.48
2022-09-10T19:02:13.850Z,24.65
2022-09-10T19:05:07.444Z,26.88
2022-09-10T19:07:30.479Z,26.30
2022-09-10T19:10:00.308Z,28.50
2022-09-10T19:12:28.611Z,22.77
2022-09-10T19:14:56.925Z,27.98
2022-09-10T19:17:26.574Z,25.98
2022-09-10T19:19:54.918Z,27.27
2022-09-10T19:22:23.208Z,27.83
2022-09-10T19:24:56.128Z,27.33
2022-09-10T19:27:25.038Z,32.20
2022-09-10T19:29:53.782Z,27.95
2022-09-10T19:32:22.191Z,27.55
2022-09-10T19:34:52.385Z,25.20
2022-09-10T19:37:21.013Z,31.95
2022-09-10T19:39:49.512Z,33.88
2022-09-10T19:42:18.387Z,30.02
2022-09-10T19:44:46.628Z,26.20
2022-09-10T19:47:14.933Z,52.63
2022-09-10T19:49:43.229Z,48.35
2022-09-10T19:52:12.885Z,36.67
2022-09-10T19:54:41.305Z,35.95
2022-09-10T19:57:10.371Z,32.60
2022-09-10T19:59:39.017Z,29.58
2022-09-10T20:02:07.759Z,35.78
2022-09-10T20:04:36.668Z,35.42
2022-09-10T20:07:05.073Z,36.38
2022-09-10T20:09:39.231Z,33.08
2022-09-10T20:12:08.964Z,31.33
2022-09-10T20:14:38.096Z,37.30
2022-09-10T20:17:06.316Z,36.55
2022-09-10T20:19:34.676Z,37.63
2022-09-10T20:22:02.828Z,40.33
2022-09-10T20:24:32.402Z,43.42
2022-09-10T20:27:02.096Z,41.92
2022-09-10T20:29:33.024Z,42.63
2022-09-10T20:32:01.325Z,38.95
2022-09-10T20:34:29.842Z,42.80
2022-09-10T20:36:58.031Z,51.42
2022-09-10T20:39:26.291Z,43.90
2022-09-10T20:41:54.939Z,48.33
2022-09-10T20:44:25.959Z,46.45
2022-09-10T20:46:54.117Z,45.15
2022-09-10T20:49:22.686Z,39.88
2022-09-10T20:51:50.835Z,46.35
2022-09-10T20:54:20.391Z,45.80
2022-09-10T20:56:49.077Z,47.47
2022-09-10T20:59:19.245Z,53.13
2022-09-10T21:01:50.904Z,54.35
2022-09-10T21:04:19.919Z,44.75
2022-09-10T21:06:48.139Z,47.88
2022-09-10T21:09:16.415Z,48.47
2022-09-10T21:11:44.746Z,43.97
2022-09-10T21:14:13.792Z,45.03
2022-09-10T21:16:43.502Z,41.65
2022-09-10T21:19:15.013Z,42.92
2022-09-10T21:21:44.931Z,47.08
2022-09-10T21:24:14.959Z,49.88
2022-09-10T21:26:44.112Z,44.38
2022-09-10T21:29:14.435Z,50.05
2022-09-10T21:31:42.875Z,50.40
2022-09-10T21:34:12.804Z,51.17
2022-09-10T21:36:43.806Z,46.63
2022-09-10T21:39:16.848Z,62.40
2022-09-10T21:41:46.975Z,51.90
2022-09-10T21:44:16.798Z,55.55
2022-09-10T21:46:45.695Z,59.42
2022-09-10T21:49:15.579Z,56.20
2022-09-10T21:51:43.972Z,59.17
2022-09-10T21:54:15.387Z,63.35
2022-09-10T21:56:43.661Z,61.95
2022-09-10T21:59:13.265Z,58.70
2022-09-10T22:01:43.416Z,68.93
2022-09-10T22:04:12.171Z,71.07
2022-09-10T22:06:41.861Z,64.53
2022-09-10T22:09:12.603Z,68.45
2022-09-10T22:11:42.753Z,68.75
2022-09-10T22:14:15.572Z,63.40
2022-09-10T22:16:45.461Z,60.28
2022-09-10T22:19:18.166Z,59.60
2022-09-10T22:21:47.920Z,64.47
2022-09-10T22:24:18.385Z,69.90
2022-09-10T22:26:47.477Z,70.25
2022-09-10T22:29:18.370Z,64.88
2022-09-10T22:31:47.703Z,75.35
2022-09-10T22:34:17.863Z,69.38
2022-09-10T22:36:49.362Z,70.47
2022-09-10T22:39:18.970Z,75.68
2022-09-10T22:41:48.668Z,64.53
2022-09-10T22:44:17.729Z,68.40
2022-09-10T22:46:46.068Z,66.57
2022-09-10T22:49:15.542Z,72.38
2022-09-10T22:51:44.131Z,63.50
2022-09-10T22:54:13.667Z,65.47
2022-09-10T22:56:42.426Z,72.65
2022-09-10T22:59:13.822Z,67.88
2022-09-10T23:01:43.357Z,72.63
2022-09-10T23:04:12.854Z,82.95
2022-09-10T23:06:41.183Z,80.43
2022-09-10T23:09:12.398Z,82.70
2022-09-10T23:11:44.080Z,83.40
2022-09-10T23:14:15.485Z,77.22
2022-09-10T23:16:46.256Z,80.88
2022-09-10T23:19:16.405Z,87.53
2022-09-10T23:21:46.722Z,86.75
2022-09-10T23:24:17.137Z,83.82
2022-09-10T23:26:47.040Z,87.22
2022-09-10T23:29:17.053Z,85.38
2022-09-10T23:31:47.412Z,90.05
2022-09-10T23:34:17.322Z,78.93
2022-09-10T23:36:48.305Z,81.80
2022-09-10T23:39:19.778Z,83.47
2022-09-10T23:41:49.902Z,79.95
2022-09-10T23:44:18.426Z,83.28
2022-09-10T23:46:46.717Z,77.03
2022-09-10T23:49:15.335Z,92.07
2022-09-10T23:51:43.814Z,99.80
2022-09-10T23:54:12.780Z,80.75
2022-09-10T23:56:41.390Z,82.30
2022-09-10T23:59:11.484Z,93.32
